Current Observation

FTSO31 AGGG 282330
TAF AGGH 282330Z 2900/2924 11015KT 9999 -SHDZ SCT016 BKN100
PROB40 INTER 2901/2907 5000 TSSH SCT015 FEW015CB BKN026
T 29 29 28 27 Q 1012 1010 1010 1011=
  
TAF AGGM 282330Z 2900/2924 09012KT 9999 -SHDZ SCT015 BKN100
PROB40 INTER 2901/2907 5000 TSSH SCT015 FEW015CB BKN026
Q 1011 1009 1009 1011=

TAF AGGN 282330Z 2900/2924 16015KT 9999 -SHDZ SCT015 BKN100
PROB40 INTER 2901/2907 5000 TSSH SCT015 FEW015CB BKN026
Q 1011 1009 1009 1011=

TAF AGGC 282330Z 2900/2924 16012KT –SHRA FEW017 SCT029 BKN100
INTER 2901/2907 5000 TSSH SCT015 FEW015CB BKN026
Q 1011 1009 1009 1011=

TAF AGGA 282330Z 2900/2924 18014KT 9999 –SHRA FEW017 SCT029 BKN100
INTER 2900/2907 4000 TSSH SCT015 FEW015CB BKN026
Q 1012 1010 1010 1011=

TAF AGGK 282330Z 2900/2924 16015KT 9999 -SHDZ FEW017 SCT029 BKN100
PROB40 INTER 2902/2907 5000 TSSH SCT015 FEW015CB BKN026
Q 1012 1010 1010 1011=

TAF AGGL 282330Z 2900/2924 09015KT 9999 -SHDZ SCT017 SCT029 BKN100
PROB40 INTER 2900/2907 5000 TSSH SCT015 FEW015CB BKN025
Q 1013 1011 1011 1012 =

TAF AGGR 282330Z 2900/2924 16016KT 9999 -SHDZ SCT017 SCT029 BKN100
Q 1014 1012 1012 1013 =

 

 

 

Last modified on Thursday, 29 June 2017 10:34

Weather Outlook

Support and Docs

Modern Design
Go to top